sensor_id;sensor_type;location;lat;lon;timestamp;pressure;altitude;pressure_sealevel;temperature;humidity
14902;BME280;7542;49.078;9.194;2023-06-10T00:00:35;98194.38;;;30.21;26.60
14902;BME280;7542;49.078;9.194;2023-06-10T00:01:37;98201.38;;;30.22;27.10
14902;BME280;7542;49.078;9.194;2023-06-10T00:02:40;98203.28;;;30.22;27.02
14902;BME280;7542;49.078;9.194;2023-06-10T00:03:43;98196.28;;;30.21;26.92
14902;BME280;7542;49.078;9.194;2023-06-10T00:04:45;98199.78;;;30.21;26.50
14902;BME280;7542;49.078;9.194;2023-06-10T00:05:48;98195.19;;;30.22;27.13
14902;BME280;7542;49.078;9.194;2023-06-10T00:06:50;98196.78;;;30.23;26.51
14902;BME280;7542;49.078;9.194;2023-06-10T00:07:53;98196.78;;;30.23;26.98
14902;BME280;7542;49.078;9.194;2023-06-10T00:08:57;98197.56;;;30.23;26.77
14902;BME280;7542;49.078;9.194;2023-06-10T00:10:00;98198.69;;;30.22;27.31
14902;BME280;7542;49.078;9.194;2023-06-10T00:11:04;98203.47;;;30.25;26.91
14902;BME280;7542;49.078;9.194;2023-06-10T00:12:08;98199.97;;;30.25;27.25
14902;BME280;7542;49.078;9.194;2023-06-10T00:13:13;98202.88;;;30.28;26.61
14902;BME280;7542;49.078;9.194;2023-06-10T00:14:15;98198.53;;;30.27;26.70
14902;BME280;7542;49.078;9.194;2023-06-10T00:15:17;98205.06;;;30.26;26.75
14902;BME280;7542;49.078;9.194;2023-06-10T00:16:20;98203.16;;;30.27;26.88
14902;BME280;7542;49.078;9.194;2023-06-10T00:17:22;98198.84;;;30.26;26.63
14902;BME280;7542;49.078;9.194;2023-06-10T00:18:24;98198.53;;;30.27;27.15
14902;BME280;7542;49.078;9.194;2023-06-10T00:19:28;98196.94;;;30.26;26.92
14902;BME280;7542;49.078;9.194;2023-06-10T00:20:33;98203.94;;;30.27;26.89
14902;BME280;7542;49.078;9.194;2023-06-10T00:21:37;98192.34;;;30.27;26.93
14902;BME280;7542;49.078;9.194;2023-06-10T00:22:42;98193.94;;;30.28;26.88
14902;BME280;7542;49.078;9.194;2023-06-10T00:23:47;98195.84;;;30.27;27.13
14902;BME280;7542;49.078;9.194;2023-06-10T00:24:50;98195.84;;;30.27;26.66
14902;BME280;7542;49.078;9.194;2023-06-10T00:25:52;98196.94;;;30.26;27.06
14902;BME280;7542;49.078;9.194;2023-06-10T00:26:54;98198.84;;;30.26;26.75
14902;BME280;7542;49.078;9.194;2023-06-10T00:27:56;98196.94;;;30.26;27.02
14902;BME280;7542;49.078;9.194;2023-06-10T00:28:59;98196.94;;;30.26;26.63
14902;BME280;7542;49.078;9.194;2023-06-10T00:30:06;98196.94;;;30.26;27.09
14902;BME280;7542;49.078;9.194;2023-06-10T00:31:09;98193.44;;;30.26;26.68
14902;BME280;7542;49.078;9.194;2023-06-10T00:32:11;98195.34;;;30.25;26.87
14902;BME280;7542;49.078;9.194;2023-06-10T00:33:13;98202.66;;;30.25;26.94
14902;BME280;7542;49.078;9.194;2023-06-10T00:34:15;98201.56;;;30.26;26.61
14902;BME280;7542;49.078;9.194;2023-06-10T00:35:17;98199.16;;;30.24;26.93
14902;BME280;7542;49.078;9.194;2023-06-10T00:36:19;98195.97;;;30.22;27.05
14902;BME280;7542;49.078;9.194;2023-06-10T00:37:21;98197.25;;;30.25;26.79
14902;BME280;7542;49.078;9.194;2023-06-10T00:38:23;98203.78;;;30.24;27.01
14902;BME280;7542;49.078;9.194;2023-06-10T00:39:25;98205.38;;;30.25;27.20
14902;BME280;7542;49.078;9.194;2023-06-10T00:40:27;98208.06;;;30.25;27.32
14902;BME280;7542;49.078;9.194;2023-06-10T00:41:29;98205.84;;;30.27;27.24
14902;BME280;7542;49.078;9.194;2023-06-10T00:42:31;98214.78;;;30.27;27.00
14902;BME280;7542;49.078;9.194;2023-06-10T00:43:33;98208.28;;;30.28;27.16
14902;BME280;7542;49.078;9.194;2023-06-10T00:44:35;98212.06;;;30.27;26.89
14902;BME280;7542;49.078;9.194;2023-06-10T00:45:38;98207.47;;;30.28;27.11
14902;BME280;7542;49.078;9.194;2023-06-10T00:46:41;98211.00;;;30.28;27.05
14902;BME280;7542;49.078;9.194;2023-06-10T00:47:43;98211.16;;;30.32;27.71
14902;BME280;7542;49.078;9.194;2023-06-10T00:48:46;98216.56;;;30.32;27.60
14902;BME280;7542;49.078;9.194;2023-06-10T00:49:49;98211.97;;;30.33;27.86
14902;BME280;7542;49.078;9.194;2023-06-10T00:50:52;98220.88;;;30.33;27.94
14902;BME280;7542;49.078;9.194;2023-06-10T00:51:55;98215.47;;;30.33;27.26
14902;BME280;7542;49.078;9.194;2023-06-10T00:52:58;98212.75;;;30.33;27.59
14902;BME280;7542;49.078;9.194;2023-06-10T00:54:02;98212.44;;;30.35;27.92
14902;BME280;7542;49.078;9.194;2023-06-10T00:55:05;98208.63;;;30.36;27.86
14902;BME280;7542;49.078;9.194;2023-06-10T00:56:10;98212.44;;;30.35;27.59
14902;BME280;7542;49.078;9.194;2023-06-10T00:57:12;98215.94;;;30.35;27.66
14902;BME280;7542;49.078;9.194;2023-06-10T00:58:17;98219.44;;;30.36;27.55
14902;BME280;7542;49.078;9.194;2023-06-10T00:59:20;98217.53;;;30.36;27.92
14902;BME280;7542;49.078;9.194;2023-06-10T01:00:22;98218.66;;;30.35;27.62
14902;BME280;7542;49.078;9.194;2023-06-10T01:01:24;98212.44;;;30.35;28.29
14902;BME280;7542;49.078;9.194;2023-06-10T01:02:28;98221.34;;;30.35;27.74
14902;BME280;7542;49.078;9.194;2023-06-10T01:03:30;98219.44;;;30.36;28.10
14902;BME280;7542;49.078;9.194;2023-06-10T01:04:34;98222.16;;;30.36;28.34
14902;BME280;7542;49.078;9.194;2023-06-10T01:05:38;98219.13;;;30.37;27.93
14902;BME280;7542;49.078;9.194;2023-06-10T01:08:54;98226.75;;;30.57;27.70
14902;BME280;7542;49.078;9.194;2023-06-10T01:10:16;98221.50;;;30.52;27.78
14902;BME280;7542;49.078;9.194;2023-06-10T01:11:29;98230.34;;;30.44;27.77
14902;BME280;7542;49.078;9.194;2023-06-10T01:13:02;98220.16;;;30.50;28.15
14902;BME280;7542;49.078;9.194;2023-06-10T01:14:05;98221.53;;;30.39;28.13
14902;BME280;7542;49.078;9.194;2023-06-10T01:15:09;98228.38;;;30.36;28.48
14902;BME280;7542;49.078;9.194;2023-06-10T01:16:13;98221.66;;;30.34;28.01
14902;BME280;7542;49.078;9.194;2023-06-10T01:17:15;98226.28;;;30.33;28.16
14902;BME280;7542;49.078;9.194;2023-06-10T01:18:18;98221.97;;;30.32;28.12
14902;BME280;7542;49.078;9.194;2023-06-10T01:19:21;98220.06;;;30.33;28.36
14902;BME280;7542;49.078;9.194;2023-06-10T01:20:26;98224.69;;;30.32;28.46
14902;BME280;7542;49.078;9.194;2023-06-10T01:21:31;98223.88;;;30.32;28.59
14902;BME280;7542;49.078;9.194;2023-06-10T01:22:35;98217.38;;;30.33;28.38
14902;BME280;7542;49.078;9.194;2023-06-10T01:23:38;98232.00;;;30.32;28.21
14902;BME280;7542;49.078;9.194;2023-06-10T01:24:40;98223.88;;;30.32;28.59
14902;BME280;7542;49.078;9.194;2023-06-10T01:25:54;98219.63;;;30.39;28.45
14902;BME280;7542;49.078;9.194;2023-06-10T01:27:05;98221.03;;;30.37;28.02
14902;BME280;7542;49.078;9.194;2023-06-10T01:28:44;98217.97;;;30.52;28.54
14902;BME280;7542;49.078;9.194;2023-06-10T01:30:02;98224.13;;;30.44;28.14
14902;BME280;7542;49.078;9.194;2023-06-10T01:32:45;98225.56;;;30.41;28.51
14902;BME280;7542;49.078;9.194;2023-06-10T01:33:51;98221.34;;;30.35;28.26
14902;BME280;7542;49.078;9.194;2023-06-10T01:34:55;98229.00;;;30.33;28.27
14902;BME280;7542;49.078;9.194;2023-06-10T01:35:59;98221.97;;;30.32;28.84
14902;BME280;7542;49.078;9.194;2023-06-10T01:37:03;98222.59;;;30.29;28.57
14902;BME280;7542;49.078;9.194;2023-06-10T01:38:06;98223.41;;;30.29;28.99
14902;BME280;7542;49.078;9.194;2023-06-10T01:39:11;98222.28;;;30.30;28.96
14902;BME280;7542;49.078;9.194;2023-06-10T01:40:16;98224.69;;;30.32;29.06
14902;BME280;7542;49.078;9.194;2023-06-10T01:41:19;98224.50;;;30.28;28.89
14902;BME280;7542;49.078;9.194;2023-06-10T01:42:23;98220.69;;;30.29;28.73
14902;BME280;7542;49.078;9.194;2023-06-10T01:43:26;98221.50;;;30.30;28.83
14902;BME280;7542;49.078;9.194;2023-06-10T01:44:28;98224.00;;;30.26;28.99
14902;BME280;7542;49.078;9.194;2023-06-10T01:45:30;98223.41;;;30.29;28.51
14902;BME280;7542;49.078;9.194;2023-06-10T01:46:32;98225.59;;;30.27;28.55
14902;BME280;7542;49.078;9.194;2023-06-10T01:47:34;98223.69;;;30.28;29.20
14902;BME280;7542;49.078;9.194;2023-06-10T01:48:38;98225.91;;;30.26;28.78
14902;BME280;7542;49.078;9.194;2023-06-10T01:49:40;98222.88;;;30.27;28.57
14902;BME280;7542;49.078;9.194;2023-06-10T01:50:42;98227.22;;;30.28;28.60
14902;BME280;7542;49.078;9.194;2023-06-10T01:51:45;98220.97;;;30.28;29.05
14902;BME280;7542;49.078;9.194;2023-06-10T01:52:47;98221.81;;;30.28;28.52
14902;BME280;7542;49.078;9.194;2023-06-10T01:53:49;98227.22;;;30.28;28.93
14902;BME280;7542;49.078;9.194;2023-06-10T01:54:51;98224.50;;;30.28;28.89
14902;BME280;7542;49.078;9.194;2023-06-10T01:55:53;98218.59;;;30.26;28.88
14902;BME280;7542;49.078;9.194;2023-06-10T01:56:55;98221.81;;;30.28;28.64
14902;BME280;7542;49.078;9.194;2023-06-10T01:57:57;98221.81;;;30.28;29.29
14902;BME280;7542;49.078;9.194;2023-06-10T01:58:59;98225.59;;;30.27;28.94
14902;BME280;7542;49.078;9.194;2023-06-10T02:00:01;98223.69;;;30.28;28.85
14902;BME280;7542;49.078;9.194;2023-06-10T02:01:05;98226.38;;;30.28;28.76
14902;BME280;7542;49.078;9.194;2023-06-10T02:02:07;98226.38;;;30.28;29.05
14902;BME280;7542;49.078;9.194;2023-06-10T02:03:09;98228.00;;;30.29;28.98
14902;BME280;7542;49.078;9.194;2023-06-10T02:04:11;98228.59;;;30.26;28.83
14902;BME280;7542;49.078;9.194;2023-06-10T02:05:13;98230.19;;;30.27;28.60
14902;BME280;7542;49.078;9.194;2023-06-10T02:06:15;98224.78;;;30.27;28.82
14902;BME280;7542;49.078;9.194;2023-06-10T02:07:17;98236.41;;;30.27;28.60
14902;BME280;7542;49.078;9.194;2023-06-10T02:08:20;98231.00;;;30.27;28.86
14902;BME280;7542;49.078;9.194;2023-06-10T02:09:22;98235.63;;;30.27;29.09
14902;BME280;7542;49.078;9.194;2023-06-10T02:10:24;98229.41;;;30.26;28.84
14902;BME280;7542;49.078;9.194;2023-06-10T02:11:26;98231.81;;;30.28;29.03
14902;BME280;7542;49.078;9.194;2023-06-10T02:12:29;98236.41;;;30.27;29.14
14902;BME280;7542;49.078;9.194;2023-06-10T02:13:31;98237.53;;;30.26;29.02
14902;BME280;7542;49.078;9.194;2023-06-10T02:14:33;98230.50;;;30.25;28.80
14902;BME280;7542;49.078;9.194;2023-06-10T02:15:35;98232.09;;;30.26;29.27
14902;BME280;7542;49.078;9.194;2023-06-10T02:16:37;98238.31;;;30.27;28.93
14902;BME280;7542;49.078;9.194;2023-06-10T02:17:39;98234.03;;;30.26;29.37
14902;BME280;7542;49.078;9.194;2023-06-10T02:18:41;98234.81;;;30.26;29.18
14902;BME280;7542;49.078;9.194;2023-06-10T02:19:45;98233.22;;;30.25;28.67
14902;BME280;7542;49.078;9.194;2023-06-10T02:20:54;98240.22;;;30.26;29.03
14902;BME280;7542;49.078;9.194;2023-06-10T02:21:56;98234.03;;;30.26;28.91
14902;BME280;7542;49.078;9.194;2023-06-10T02:22:59;98238.63;;;30.25;29.11
14902;BME280;7542;49.078;9.194;2023-06-10T02:24:01;98241.66;;;30.24;29.03
14902;BME280;7542;49.078;9.194;2023-06-10T02:25:05;98233.53;;;30.24;28.69
14902;BME280;7542;49.078;9.194;2023-06-10T02:26:07;98233.84;;;30.22;28.88
14902;BME280;7542;49.078;9.194;2023-06-10T02:27:09;98240.84;;;30.23;28.61
14902;BME280;7542;49.078;9.194;2023-06-10T02:28:11;98239.25;;;30.22;28.60
14902;BME280;7542;49.078;9.194;2023-06-10T02:29:13;98238.75;;;30.20;29.16
14902;BME280;7542;49.078;9.194;2023-06-10T02:30:15;98234.16;;;30.21;28.67
14902;BME280;7542;49.078;9.194;2023-06-10T02:31:17;98238.44;;;30.22;28.76
14902;BME280;7542;49.078;9.194;2023-06-10T02:32:20;98234.94;;;30.21;28.60
14902;BME280;7542;49.078;9.194;2023-06-10T02:33:22;98236.84;;;30.21;29.07
14902;BME280;7542;49.078;9.194;2023-06-10T02:34:25;98240.34;;;30.21;28.84
14902;BME280;7542;49.078;9.194;2023-06-10T02:35:28;98235.25;;;30.20;28.47
14902;BME280;7542;49.078;9.194;2023-06-10T02:36:30;98244.16;;;30.20;28.77
14902;BME280;7542;49.078;9.194;2023-06-10T02:37:31;98246.88;;;30.20;28.69
14902;BME280;7542;49.078;9.194;2023-06-10T02:38:33;98237.16;;;30.19;28.89
14902;BME280;7542;49.078;9.194;2023-06-10T02:39:36;98242.06;;;30.17;29.18
14902;BME280;7542;49.078;9.194;2023-06-10T02:40:38;98241.25;;;30.17;28.88
14902;BME280;7542;49.078;9.194;2023-06-10T02:41:40;98240.97;;;30.18;29.13
14902;BME280;7542;49.078;9.194;2023-06-10T02:42:42;98238.56;;;30.17;28.77
14902;BME280;7542;49.078;9.194;2023-06-10T02:43:44;98245.06;;;30.16;28.83
14902;BME280;7542;49.078;9.194;2023-06-10T02:44:46;98245.06;;;30.16;29.25
14902;BME280;7542;49.078;9.194;2023-06-10T02:45:48;98241.56;;;30.15;29.13
14902;BME280;7542;49.078;9.194;2023-06-10T02:46:50;98246.97;;;30.15;29.07
14902;BME280;7542;49.078;9.194;2023-06-10T02:47:52;98246.19;;;30.15;29.24
14902;BME280;7542;49.078;9.194;2023-06-10T02:48:54;98249.69;;;30.15;28.88
14902;BME280;7542;49.078;9.194;2023-06-10T02:49:56;98252.38;;;30.15;29.18
14902;BME280;7542;49.078;9.194;2023-06-10T02:50:58;98248.88;;;30.15;28.97
14902;BME280;7542;49.078;9.194;2023-06-10T02:52:00;98246.50;;;30.13;28.94
14902;BME280;7542;49.078;9.194;2023-06-10T02:53:02;98251.91;;;30.13;29.02
14902;BME280;7542;49.078;9.194;2023-06-10T02:54:04;98252.69;;;30.14;28.83
14902;BME280;7542;49.078;9.194;2023-06-10T02:55:07;98247.59;;;30.12;28.80
14902;BME280;7542;49.078;9.194;2023-06-10T02:56:09;98248.72;;;30.11;29.11
14902;BME280;7542;49.078;9.194;2023-06-10T02:57:11;98249.00;;;30.10;29.09
14902;BME280;7542;49.078;9.194;2023-06-10T02:58:13;98260.31;;;30.12;28.85
14902;BME280;7542;49.078;9.194;2023-06-10T02:59:15;98251.72;;;30.10;29.42
14902;BME280;7542;49.078;9.194;2023-06-10T03:00:18;98246.31;;;30.10;29.36
14902;BME280;7542;49.078;9.194;2023-06-10T03:01:22;98257.94;;;30.10;28.85
14902;BME280;7542;49.078;9.194;2023-06-10T03:02:24;98248.22;;;30.09;29.10
14902;BME280;7542;49.078;9.194;2023-06-10T03:03:30;98252.53;;;30.10;29.18
14902;BME280;7542;49.078;9.194;2023-06-10T03:04:32;98247.41;;;30.09;28.92
14902;BME280;7542;49.078;9.194;2023-06-10T03:05:34;98251.72;;;30.10;28.98
14902;BME280;7542;49.078;9.194;2023-06-10T03:06:36;98243.91;;;30.08;28.95
14902;BME280;7542;49.078;9.194;2023-06-10T03:07:40;98249.31;;;30.08;29.15
14902;BME280;7542;49.078;9.194;2023-06-10T03:08:42;98254.72;;;30.08;29.53
14902;BME280;7542;49.078;9.194;2023-06-10T03:09:44;98261.25;;;30.07;29.24
14902;BME280;7542;49.078;9.194;2023-06-10T03:10:46;98263.94;;;30.07;28.97
14902;BME280;7542;49.078;9.194;2023-06-10T03:11:48;98251.50;;;30.06;29.48
14902;BME280;7542;49.078;9.194;2023-06-10T03:12:50;98249.88;;;30.05;29.75
14902;BME280;7542;49.078;9.194;2023-06-10T03:13:52;98252.59;;;30.05;29.11
14902;BME280;7542;49.078;9.194;2023-06-10T03:14:57;98253.38;;;30.06;29.18
14902;BME280;7542;49.078;9.194;2023-06-10T03:15:59;98251.78;;;30.05;29.69
14902;BME280;7542;49.078;9.194;2023-06-10T03:17:02;98257.19;;;30.05;29.17
14902;BME280;7542;49.078;9.194;2023-06-10T03:18:05;98258.00;;;30.05;29.61
14902;BME280;7542;49.078;9.194;2023-06-10T03:19:08;98255.28;;;30.05;29.23
14902;BME280;7542;49.078;9.194;2023-06-10T03:20:11;98261.00;;;30.03;29.58
14902;BME280;7542;49.078;9.194;2023-06-10T03:21:14;98259.09;;;30.04;29.46
14902;BME280;7542;49.078;9.194;2023-06-10T03:22:17;98254.81;;;30.03;29.16
14902;BME280;7542;49.078;9.194;2023-06-10T03:23:19;98259.41;;;30.02;29.79
14902;BME280;7542;49.078;9.194;2023-06-10T03:24:21;98258.63;;;30.02;29.74
14902;BME280;7542;49.078;9.194;2023-06-10T03:25:23;98259.72;;;30.01;29.63
14902;BME280;7542;49.078;9.194;2023-06-10T03:26:27;98262.91;;;30.03;29.65
14902;BME280;7542;49.078;9.194;2023-06-10T03:27:30;98255.09;;;30.01;29.59
14902;BME280;7542;49.078;9.194;2023-06-10T03:28:32;98258.13;;;30.00;29.27
14902;BME280;7542;49.078;9.194;2023-06-10T03:29:34;98263.53;;;30.00;29.71
14902;BME280;7542;49.078;9.194;2023-06-10T03:30:36;98257.31;;;29.99;29.23
14902;BME280;7542;49.078;9.194;2023-06-10T03:31:38;98264.31;;;30.00;29.22
14902;BME280;7542;49.078;9.194;2023-06-10T03:32:40;98263.53;;;30.00;29.73
14902;BME280;7542;49.078;9.194;2023-06-10T03:33:43;98262.72;;;29.99;29.72
14902;BME280;7542;49.078;9.194;2023-06-10T03:34:45;98270.53;;;30.01;29.83
14902;BME280;7542;49.078;9.194;2023-06-10T03:35:46;98268.94;;;30.00;29.45
14902;BME280;7542;49.078;9.194;2023-06-10T03:36:49;98269.25;;;29.98;29.66
14902;BME280;7542;49.078;9.194;2023-06-10T03:37:51;98261.94;;;29.99;29.34
14902;BME280;7542;49.078;9.194;2023-06-10T03:38:53;98267.34;;;29.99;29.78
14902;BME280;7542;49.078;9.194;2023-06-10T03:39:58;98269.25;;;29.98;29.55
14902;BME280;7542;49.078;9.194;2023-06-10T03:41:00;98274.34;;;30.00;29.55
14902;BME280;7542;49.078;9.194;2023-06-10T03:42:02;98271.94;;;29.98;29.53
14902;BME280;7542;49.078;9.194;2023-06-10T03:43:04;98269.56;;;29.97;29.64
14902;BME280;7542;49.078;9.194;2023-06-10T03:44:06;98271.16;;;29.98;29.79
14902;BME280;7542;49.078;9.194;2023-06-10T03:45:09;98265.25;;;29.96;29.77
14902;BME280;7542;49.078;9.194;2023-06-10T03:46:12;98273.06;;;29.97;29.41
14902;BME280;7542;49.078;9.194;2023-06-10T03:47:14;98273.38;;;29.96;29.44
14902;BME280;7542;49.078;9.194;2023-06-10T03:48:16;98273.06;;;29.97;29.81
14902;BME280;7542;49.078;9.194;2023-06-10T03:49:18;98272.25;;;29.97;29.73
14902;BME280;7542;49.078;9.194;2023-06-10T03:50:20;98276.56;;;29.98;29.81
14902;BME280;7542;49.078;9.194;2023-06-10T03:51:22;98274.16;;;29.96;29.99
14902;BME280;7542;49.078;9.194;2023-06-10T03:52:24;98272.53;;;29.95;29.45
14902;BME280;7542;49.078;9.194;2023-06-10T03:53:26;98274.97;;;29.97;29.81
14902;BME280;7542;49.078;9.194;2023-06-10T03:54:28;98267.13;;;29.95;29.51
14902;BME280;7542;49.078;9.194;2023-06-10T03:55:30;98272.53;;;29.95;29.90
14902;BME280;7542;49.078;9.194;2023-06-10T03:56:33;98273.38;;;29.96;29.67
14902;BME280;7542;49.078;9.194;2023-06-10T03:57:35;98276.06;;;29.96;29.83
14902;BME280;7542;49.078;9.194;2023-06-10T03:58:37;98270.94;;;29.94;29.73
14902;BME280;7542;49.078;9.194;2023-06-10T03:59:39;98272.84;;;29.94;29.52
14902;BME280;7542;49.078;9.194;2023-06-10T04:00:41;98273.63;;;29.94;29.60
14902;BME280;7542;49.078;9.194;2023-06-10T04:01:43;98277.16;;;29.95;30.00
14902;BME280;7542;49.078;9.194;2023-06-10T04:02:45;98278.25;;;29.94;29.43
14902;BME280;7542;49.078;9.194;2023-06-10T04:03:49;98275.53;;;29.94;29.81
14902;BME280;7542;49.078;9.194;2023-06-10T04:04:53;98279.84;;;29.95;29.53
14902;BME280;7542;49.078;9.194;2023-06-10T04:05:55;98271.75;;;29.95;29.99
14902;BME280;7542;49.078;9.194;2023-06-10T04:06:57;98276.34;;;29.94;29.51
14902;BME280;7542;49.078;9.194;2023-06-10T04:07:59;98270.94;;;29.94;29.63
14902;BME280;7542;49.078;9.194;2023-06-10T04:09:03;98277.16;;;29.95;29.56
14902;BME280;7542;49.078;9.194;2023-06-10T04:10:06;98282.56;;;29.95;30.08
14902;BME280;7542;49.078;9.194;2023-06-10T04:11:09;98278.25;;;29.94;29.80
14902;BME280;7542;49.078;9.194;2023-06-10T04:12:11;98270.13;;;29.94;29.81
14902;BME280;7542;49.078;9.194;2023-06-10T04:13:13;98271.25;;;29.93;30.08
14902;BME280;7542;49.078;9.194;2023-06-10T04:14:16;98276.34;;;29.94;29.64
14902;BME280;7542;49.078;9.194;2023-06-10T04:15:18;98276.34;;;29.94;30.01
14902;BME280;7542;49.078;9.194;2023-06-10T04:16:20;98275.53;;;29.94;29.78
14902;BME280;7542;49.078;9.194;2023-06-10T04:17:23;98280.94;;;29.94;29.92
14902;BME280;7542;49.078;9.194;2023-06-10T04:18:25;98277.44;;;29.93;29.79
14902;BME280;7542;49.078;9.194;2023-06-10T04:19:27;98270.13;;;29.94;30.14
14902;BME280;7542;49.078;9.194;2023-06-10T04:20:30;98276.34;;;29.94;30.00
14902;BME280;7542;49.078;9.194;2023-06-10T04:21:32;98277.44;;;29.93;30.26
14902;BME280;7542;49.078;9.194;2023-06-10T04:22:34;98283.66;;;29.94;30.13
14902;BME280;7542;49.078;9.194;2023-06-10T04:23:36;98283.66;;;29.94;30.25
14902;BME280;7542;49.078;9.194;2023-06-10T04:24:39;98287.97;;;29.95;29.84
14902;BME280;7542;49.078;9.194;2023-06-10T04:25:41;98283.34;;;29.95;29.70
14902;BME280;7542;49.078;9.194;2023-06-10T04:26:43;98285.25;;;29.95;29.63
14902;BME280;7542;49.078;9.194;2023-06-10T04:27:45;98284.19;;;29.96;29.96
14902;BME280;7542;49.078;9.194;2023-06-10T04:28:47;98289.59;;;29.96;30.32
14902;BME280;7542;49.078;9.194;2023-06-10T04:29:48;98291.97;;;29.97;29.72
14902;BME280;7542;49.078;9.194;2023-06-10T04:30:50;98283.88;;;29.97;29.83
14902;BME280;7542;49.078;9.194;2023-06-10T04:31:52;98290.88;;;29.98;29.78
14902;BME280;7542;49.078;9.194;2023-06-10T04:32:54;98290.56;;;30.00;30.17
14902;BME280;7542;49.078;9.194;2023-06-10T04:33:57;98280.06;;;29.98;30.42
14902;BME280;7542;49.078;9.194;2023-06-10T04:35:00;98286.25;;;29.99;30.26
14902;BME280;7542;49.078;9.194;2023-06-10T04:36:02;98291.06;;;30.02;30.39
14902;BME280;7542;49.078;9.194;2023-06-10T04:37:05;98294.56;;;30.02;30.09
14902;BME280;7542;49.078;9.194;2023-06-10T04:38:08;98295.34;;;30.03;30.22
14902;BME280;7542;49.078;9.194;2023-06-10T04:39:10;98295.34;;;30.03;29.99
14902;BME280;7542;49.078;9.194;2023-06-10T04:40:12;98301.25;;;30.05;30.28
14902;BME280;7542;49.078;9.194;2023-06-10T04:41:15;98290.44;;;30.05;30.29
14902;BME280;7542;49.078;9.194;2023-06-10T04:42:17;98295.56;;;30.07;30.11
14902;BME280;7542;49.078;9.194;2023-06-10T04:43:19;98298.00;;;30.08;29.76
14902;BME280;7542;49.078;9.194;2023-06-10T04:44:21;98293.69;;;30.07;30.29
14902;BME280;7542;49.078;9.194;2023-06-10T04:45:23;98294.19;;;30.09;30.18
14902;BME280;7542;49.078;9.194;2023-06-10T04:46:25;98297.69;;;30.10;29.70
14902;BME280;7542;49.078;9.194;2023-06-10T04:47:27;98296.59;;;30.11;30.24
14902;BME280;7542;49.078;9.194;2023-06-10T04:48:29;98294.69;;;30.11;29.81
14902;BME280;7542;49.078;9.194;2023-06-10T04:49:31;98298.97;;;30.12;29.87
14902;BME280;7542;49.078;9.194;2023-06-10T04:50:33;98297.06;;;30.13;29.83
14902;BME280;7542;49.078;9.194;2023-06-10T04:51:34;98300.25;;;30.15;29.99
14902;BME280;7542;49.078;9.194;2023-06-10T04:52:37;98303.28;;;30.13;30.03
14902;BME280;7542;49.078;9.194;2023-06-10T04:53:39;98306.47;;;30.15;30.05
14902;BME280;7542;49.078;9.194;2023-06-10T04:54:41;98303.78;;;30.15;29.72
14902;BME280;7542;49.078;9.194;2023-06-10T04:55:43;98304.88;;;30.14;29.78
14902;BME280;7542;49.078;9.194;2023-06-10T04:56:45;98307.28;;;30.16;30.22
14902;BME280;7542;49.078;9.194;2023-06-10T04:57:48;98307.78;;;30.18;29.68
14902;BME280;7542;49.078;9.194;2023-06-10T04:58:53;98308.59;;;30.18;30.07
14902;BME280;7542;49.078;9.194;2023-06-10T04:59:55;98308.59;;;30.18;30.25
14902;BME280;7542;49.078;9.194;2023-06-10T05:00:57;98305.09;;;30.18;30.33
14902;BME280;7542;49.078;9.194;2023-06-10T05:01:59;98307.47;;;30.19;29.84
14902;BME280;7542;49.078;9.194;2023-06-10T05:03:01;98306.38;;;30.20;29.91
14902;BME280;7542;49.078;9.194;2023-06-10T05:04:03;98307.97;;;30.21;30.03
14902;BME280;7542;49.078;9.194;2023-06-10T05:05:06;98312.28;;;30.22;30.25
14902;BME280;7542;49.078;9.194;2023-06-10T05:06:09;98304.16;;;30.22;30.19
14902;BME280;7542;49.078;9.194;2023-06-10T05:07:12;98306.06;;;30.22;30.11
14902;BME280;7542;49.078;9.194;2023-06-10T05:08:14;98315.47;;;30.24;30.25
14902;BME280;7542;49.078;9.194;2023-06-10T05:09:16;98310.06;;;30.24;29.84
14902;BME280;7542;49.078;9.194;2023-06-10T05:10:18;98314.38;;;30.25;30.32
14902;BME280;7542;49.078;9.194;2023-06-10T05:11:20;98312.47;;;30.26;30.45
14902;BME280;7542;49.078;9.194;2023-06-10T05:12:22;98311.34;;;30.27;30.02
14902;BME280;7542;49.078;9.194;2023-06-10T05:13:24;98317.56;;;30.27;30.02
14902;BME280;7542;49.078;9.194;2023-06-10T05:14:26;98313.25;;;30.26;30.04
14902;BME280;7542;49.078;9.194;2023-06-10T05:15:29;98319.19;;;30.28;30.29
14902;BME280;7542;49.078;9.194;2023-06-10T05:16:32;98316.47;;;30.28;30.08
14902;BME280;7542;49.078;9.194;2023-06-10T05:17:34;98318.06;;;30.29;29.90
14902;BME280;7542;49.078;9.194;2023-06-10T05:18:39;98315.06;;;30.31;30.45
14902;BME280;7542;49.078;9.194;2023-06-10T05:19:41;98311.56;;;30.30;30.18
14902;BME280;7542;49.078;9.194;2023-06-10T05:20:44;98320.16;;;30.33;30.22
14902;BME280;7542;49.078;9.194;2023-06-10T05:21:47;98313.97;;;30.32;30.46
14902;BME280;7542;49.078;9.194;2023-06-10T05:22:49;98315.56;;;30.33;30.21
14902;BME280;7542;49.078;9.194;2023-06-10T05:23:51;98314.75;;;30.33;30.67
14902;BME280;7542;49.078;9.194;2023-06-10T05:24:53;98317.94;;;30.35;30.72
14902;BME280;7542;49.078;9.194;2023-06-10T05:25:55;98317.16;;;30.34;30.79
14902;BME280;7542;49.078;9.194;2023-06-10T05:26:57;98317.63;;;30.36;30.54
14902;BME280;7542;49.078;9.194;2023-06-10T05:27:59;98320.03;;;30.38;30.63
14902;BME280;7542;49.078;9.194;2023-06-10T05:29:01;98319.72;;;30.39;30.55
14902;BME280;7542;49.078;9.194;2023-06-10T05:30:03;98316.75;;;30.41;30.30
14902;BME280;7542;49.078;9.194;2023-06-10T05:31:06;98319.44;;;30.41;30.45
14902;BME280;7542;49.078;9.194;2023-06-10T05:32:08;98314.03;;;30.41;30.17
14902;BME280;7542;49.078;9.194;2023-06-10T05:33:10;98326.94;;;30.44;30.58
14902;BME280;7542;49.078;9.194;2023-06-10T05:34:12;98318.81;;;30.44;30.13
14902;BME280;7542;49.078;9.194;2023-06-10T05:35:14;98316.91;;;30.44;30.43
14902;BME280;7542;49.078;9.194;2023-06-10T05:36:16;98320.41;;;30.45;30.08
14902;BME280;7542;49.078;9.194;2023-06-10T05:37:18;98315.81;;;30.45;30.00
14902;BME280;7542;49.078;9.194;2023-06-10T05:38:20;98310.09;;;30.47;30.39
14902;BME280;7542;49.078;9.194;2023-06-10T05:39:22;98319.00;;;30.47;30.05
14902;BME280;7542;49.078;9.194;2023-06-10T05:40:24;98312.47;;;30.48;29.85
14902;BME280;7542;49.078;9.194;2023-06-10T05:41:26;98307.88;;;30.49;30.30